Time;durP1;ratioP1;P1;durP2;ratioP2;P2;SDS_P1;SDS_P2;PMS_P1;PMS_P2;Temp;Humidity;BMP_temperature;BMP_pressure;BME280_temperature;BME280_humidity;BME280_pressure;Samples;Min_cycle;Max_cycle;Signal;HPM_P1;HPM_P2
2023/08/08 00:00:03;;;;;;;1.40;0.75;;;;;;;19.15;100.00;100137.03;5014439;28;20580;-77
2023/08/08 00:02:28;;;;;;;1.42;0.75;;;;;;;19.66;100.00;100182.84;5016168;28;20486;-76
2023/08/08 00:04:54;;;;;;;1.52;1.00;;;;;;;20.00;100.00;100232.09;5015436;28;20038;-74
2023/08/08 00:07:19;;;;;;;2.25;1.33;;;;;;;17.75;100.00;99880.25;5016729;28;20522;-75
2023/08/08 00:09:45;;;;;;;2.38;1.10;;;;;;;18.72;100.00;100089.94;5007795;28;20069;-74
2023/08/08 00:12:10;;;;;;;1.00;0.60;;;;;;;18.56;100.00;100065.75;5016150;28;20041;-77
2023/08/08 00:14:36;;;;;;;1.08;0.55;;;;;;;19.06;100.00;100108.13;5009461;28;20570;-76
2023/08/08 00:17:01;;;;;;;3.50;1.88;;;;;;;19.19;100.00;100175.84;5016933;28;20046;-75
2023/08/08 00:19:27;;;;;;;2.55;1.23;;;;;;;19.40;100.00;100190.09;5014191;28;20045;-75
2023/08/08 00:21:52;;;;;;;4.13;2.88;;;;;;;19.36;100.00;100211.56;5020829;28;20041;-75
2023/08/08 00:24:18;;;;;;;1.58;0.88;;;;;;;19.37;100.00;100219.50;5021599;28;20034;-74
2023/08/08 00:26:43;;;;;;;1.45;1.05;;;;;;;18.67;100.00;100121.16;5003463;28;20028;-78
2023/08/08 00:29:09;;;;;;;1.15;0.63;;;;;;;18.29;100.00;100100.41;5019035;28;20049;-76
2023/08/08 00:31:34;;;;;;;0.98;0.47;;;;;;;19.03;100.00;100216.41;5009001;28;20094;-75
2023/08/08 00:34:00;;;;;;;2.35;0.80;;;;;;;18.52;100.00;100144.72;5017189;28;20030;-76
2023/08/08 00:36:25;;;;;;;1.25;0.73;;;;;;;18.55;100.00;100133.97;5018228;28;20076;-76
2023/08/08 00:38:51;;;;;;;1.20;0.73;;;;;;;19.25;100.00;100253.72;5007819;28;20045;-76
2023/08/08 00:41:16;;;;;;;0.60;0.40;;;;;;;18.43;100.00;100168.09;5014558;28;20025;-76
2023/08/08 00:43:43;;;;;;;2.00;0.70;;;;;;;17.99;100.00;100126.28;5009319;28;20576;-75
2023/08/08 00:46:09;;;;;;;1.55;0.63;;;;;;;18.71;100.00;100215.81;5012377;28;20038;-74
2023/08/08 00:48:34;;;;;;;3.63;0.85;;;;;;;18.71;100.00;100248.56;5009024;28;20422;-76
2023/08/08 00:51:00;;;;;;;1.98;1.02;;;;;;;18.27;100.00;100109.34;5019864;28;20533;-76
2023/08/08 00:53:28;;;;;;;2.88;0.88;;;;;;;19.02;100.00;100234.16;5016848;28;20080;-76
2023/08/08 00:55:54;;;;;;;2.33;1.48;;;;;;;17.99;100.00;100070.53;5011976;28;20049;-77
2023/08/08 00:58:19;;;;;;;1.40;0.47;;;;;;;18.77;100.00;100226.22;5013082;28;20129;-77
2023/08/08 01:00:45;;;;;;;1.17;1.02;;;;;;;18.24;100.00;100120.97;5009060;28;20121;-75
2023/08/08 01:03:10;;;;;;;3.95;1.00;;;;;;;19.02;100.00;100263.41;5019403;28;20026;-75
2023/08/08 01:05:42;;;;;;;0.73;0.47;;;;;;;18.18;100.00;100145.06;5022871;28;20022;-75
2023/08/08 01:08:08;;;;;;;2.08;1.17;;;;;;;18.44;100.00;100213.19;5015909;28;20085;-76
2023/08/08 01:10:38;;;;;;;2.08;0.70;;;;;;;18.90;100.00;100283.34;5015125;28;20041;-78
2023/08/08 01:13:07;;;;;;;1.17;1.05;;;;;;;18.70;100.00;100276.03;5015212;28;20486;-77
2023/08/08 01:15:35;;;;;;;1.08;0.52;;;;;;;18.56;100.00;100279.19;5016409;28;20306;-77
2023/08/08 01:18:05;;;;;;;2.22;0.75;;;;;;;18.19;100.00;100191.97;5011859;28;20057;-76
2023/08/08 01:20:33;;;;;;;2.45;1.35;;;;;;;17.98;100.00;100169.69;5015295;28;20175;-75
2023/08/08 01:23:26;;;;;;;0.98;0.50;;;;;;;18.82;100.00;100292.53;5011035;28;20045;-75
2023/08/08 01:25:53;;;;;;;0.80;0.50;;;;;;;18.91;100.00;100293.03;5011695;28;20141;-75
2023/08/08 01:28:22;;;;;;;0.82;0.63;;;;;;;18.95;100.00;100285.84;5012475;28;20057;-76
2023/08/08 01:30:48;;;;;;;1.15;0.50;;;;;;;19.06;100.00;100282.78;5010532;28;20041;-77
2023/08/08 01:33:14;;;;;;;1.58;0.90;;;;;;;18.62;100.00;100266.63;5017350;28;20464;-76
2023/08/08 01:35:44;;;;;;;3.95;1.25;;;;;;;18.05;100.00;100157.94;5008870;28;20037;-78
2023/08/08 01:38:17;;;;;;;1.83;0.57;;;;;;;18.18;100.00;100174.28;5011863;28;20048;-77
2023/08/08 01:40:44;;;;;;;2.22;0.98;;;;;;;18.69;100.00;100286.75;5015206;28;20062;-78
2023/08/08 01:43:10;;;;;;;1.17;0.70;;;;;;;18.25;100.00;100186.44;5014643;28;20045;-77
2023/08/08 01:45:37;;;;;;;3.17;0.63;;;;;;;18.51;100.00;100230.66;5020500;28;20040;-77
2023/08/08 01:48:10;;;;;;;1.70;0.70;;;;;;;18.12;100.00;100185.13;5010555;28;20025;-77
2023/08/08 01:50:37;;;;;;;4.20;0.85;;;;;;;18.84;100.00;100296.84;5016925;28;20040;-77
2023/08/08 01:53:03;;;;;;;3.28;1.40;;;;;;;17.70;100.00;100121.94;5025098;28;20053;-77
2023/08/08 01:55:28;;;;;;;2.38;0.98;;;;;;;18.01;100.00;100166.91;5016068;28;20073;-76
2023/08/08 01:57:54;;;;;;;1.23;0.50;;;;;;;18.76;100.00;100289.16;5021440;28;20073;-78
2023/08/08 02:00:20;;;;;;;2.47;0.93;;;;;;;18.94;100.00;100303.59;5017374;28;20045;-77
2023/08/08 02:02:45;;;;;;;1.50;0.57;;;;;;;18.59;100.00;100295.97;5020352;28;20063;-78
2023/08/08 02:05:11;;;;;;;0.93;0.55;;;;;;;18.71;100.00;100274.28;5011310;28;20046;-78
2023/08/08 02:07:36;;;;;;;2.03;0.65;;;;;;;18.42;100.00;100286.78;5016816;28;20351;-77
2023/08/08 02:10:02;;;;;;;0.75;0.52;;;;;;;17.89;100.00;100196.53;5013142;28;20045;-77
2023/08/08 02:12:29;;;;;;;1.00;0.63;;;;;;;18.70;100.00;100325.69;5021429;28;20033;-77
2023/08/08 02:14:56;;;;;;;1.23;0.40;;;;;;;17.90;100.00;100198.25;5012070;28;20026;-76
2023/08/08 02:17:21;;;;;;;1.25;0.80;;;;;;;18.40;100.00;100264.69;5018795;28;20592;-76
2023/08/08 02:19:46;;;;;;;1.83;0.95;;;;;;;17.89;100.00;100205.38;5018169;28;20117;-77
2023/08/08 02:22:12;;;;;;;1.83;0.93;;;;;;;16.26;100.00;99939.25;5014266;28;20393;-76
2023/08/08 02:24:37;;;;;;;1.13;0.60;;;;;;;18.35;100.00;100304.75;5009538;28;20033;-76
2023/08/08 02:27:04;;;;;;;1.17;0.38;;;;;;;18.57;100.00;100327.91;5018910;28;20056;-76
2023/08/08 02:29:29;;;;;;;1.42;1.13;;;;;;;18.63;100.00;100329.47;5013351;28;20835;-76
2023/08/08 02:31:55;;;;;;;2.80;0.30;;;;;;;18.42;100.00;100300.06;5015507;28;20057;-76
2023/08/08 02:34:20;;;;;;;1.48;0.55;;;;;;;17.39;100.00;100125.59;5012685;28;20045;-76
2023/08/08 02:36:46;;;;;;;1.55;0.52;;;;;;;18.63;100.00;100335.66;5014241;28;20053;-76
2023/08/08 02:39:11;;;;;;;1.10;0.60;;;;;;;18.29;100.00;100312.91;5011961;28;20041;-76
2023/08/08 02:41:37;;;;;;;0.98;0.65;;;;;;;17.92;100.00;100223.84;5022136;28;20405;-76
2023/08/08 02:44:02;;;;;;;0.47;0.38;;;;;;;17.86;100.00;100257.69;5015352;28;20050;-77
2023/08/08 02:46:28;;;;;;;1.25;0.70;;;;;;;17.97;100.00;100268.81;5019280;28;20125;-75
2023/08/08 02:48:53;;;;;;;1.02;0.60;;;;;;;18.12;100.00;100341.78;5017956;28;20096;-76
2023/08/08 02:51:19;;;;;;;1.05;0.70;;;;;;;17.83;100.00;100268.41;5007308;28;20465;-76
2023/08/08 02:53:44;;;;;;;1.65;0.50;;;;;;;17.63;100.00;100231.84;5015144;28;20018;-76
2023/08/08 02:56:09;;;;;;;1.40;0.50;;;;;;;18.45;100.00;100374.38;5016271;28;20072;-76
2023/08/08 02:58:35;;;;;;;0.73;0.45;;;;;;;17.76;100.00;100274.78;5014791;28;20497;-79
2023/08/08 03:01:00;;;;;;;0.82;0.50;;;;;;;17.37;100.00;100249.47;5010813;28;20120;-77
2023/08/08 03:03:26;;;;;;;0.70;0.40;;;;;;;17.81;100.00;100316.22;5011841;28;20033;-76
2023/08/08 03:05:51;;;;;;;1.02;0.68;;;;;;;17.36;100.00;100194.66;5015581;28;20705;-77
2023/08/08 03:08:17;;;;;;;0.63;0.43;;;;;;;18.17;100.00;100307.13;5015363;28;20026;-76
2023/08/08 03:10:42;;;;;;;1.92;0.57;;;;;;;18.23;100.00;100337.00;5014755;28;20091;-78
2023/08/08 03:13:08;;;;;;;1.50;0.85;;;;;;;18.25;100.00;100329.00;5011625;28;20041;-78
2023/08/08 03:15:34;;;;;;;2.35;1.13;;;;;;;17.83;100.00;100351.56;5018902;28;20025;-76
2023/08/08 03:17:59;;;;;;;0.45;0.32;;;;;;;17.93;100.00;100347.72;5003696;28;20541;-76
2023/08/08 03:20:25;;;;;;;1.58;0.57;;;;;;;18.05;100.00;100377.44;5016660;28;20072;-76
2023/08/08 03:22:50;;;;;;;1.83;0.63;;;;;;;16.91;100.00;100183.72;5015659;28;20049;-75
2023/08/08 03:25:16;;;;;;;1.58;1.13;;;;;;;17.56;100.00;100334.69;5012749;28;20046;-75
2023/08/08 03:27:43;;;;;;;1.00;0.52;;;;;;;17.86;100.00;100340.88;5015687;28;20082;-77
2023/08/08 03:30:09;;;;;;;1.45;0.80;;;;;;;17.35;100.00;100231.84;5017273;28;20195;-76
2023/08/08 03:32:34;;;;;;;2.20;0.85;;;;;;;17.16;100.00;100221.81;5011430;28;20025;-76
2023/08/08 03:35:00;;;;;;;0.52;0.40;;;;;;;16.82;100.00;100211.34;5012755;28;20413;-76
2023/08/08 03:37:25;;;;;;;0.95;0.50;;;;;;;17.52;100.00;100351.59;5010285;28;20486;-75
2023/08/08 03:39:50;;;;;;;1.65;0.68;;;;;;;17.72;100.00;100329.75;5015432;28;20049;-76
2023/08/08 03:42:16;;;;;;;1.77;0.65;;;;;;;17.70;100.00;100283.84;5014480;28;20041;-76
2023/08/08 03:44:42;;;;;;;1.70;0.60;;;;;;;17.69;100.00;100255.53;5009010;28;20559;-77
2023/08/08 03:47:07;;;;;;;1.17;0.65;;;;;;;17.93;100.00;100273.38;5015382;28;20042;-77
2023/08/08 03:49:33;;;;;;;1.38;0.65;;;;;;;18.31;100.00;100339.44;5011440;28;20104;-77
2023/08/08 03:51:58;;;;;;;0.90;0.70;;;;;;;18.18;100.00;100338.94;5018378;28;20038;-76
2023/08/08 03:54:24;;;;;;;1.52;0.50;;;;;;;17.67;100.00;100284.78;5024187;28;20123;-77
2023/08/08 03:56:49;;;;;;;1.33;0.50;;;;;;;17.80;100.00;100340.16;5018820;28;20018;-75
2023/08/08 03:59:15;;;;;;;1.58;0.93;;;;;;;17.13;100.00;100268.75;5021016;28;20021;-76
2023/08/08 04:01:40;;;;;;;1.38;0.68;;;;;;;17.84;100.00;100366.59;5015980;28;20123;-76
2023/08/08 04:04:06;;;;;;;2.25;1.25;;;;;;;18.24;100.00;100409.59;5016765;28;20108;-75
2023/08/08 04:06:31;;;;;;;0.55;0.32;;;;;;;17.50;100.00;100281.78;5015746;28;20037;-76
2023/08/08 04:08:56;;;;;;;0.80;0.40;;;;;;;18.22;100.00;100424.72;5008643;28;20227;-77
2023/08/08 04:11:22;;;;;;;1.33;0.75;;;;;;;17.43;100.00;100294.38;5015374;28;20260;-75
2023/08/08 04:13:47;;;;;;;1.27;0.80;;;;;;;17.99;100.00;100409.50;5016087;28;20044;-77
2023/08/08 04:16:14;;;;;;;2.97;1.50;;;;;;;17.70;100.00;100400.59;5010224;28;20056;-76
2023/08/08 04:18:39;;;;;;;1.55;1.20;;;;;;;17.85;100.00;100392.19;5015302;28;20065;-76
2023/08/08 04:21:04;;;;;;;1.85;0.90;;;;;;;17.61;100.00;100367.25;5007335;28;20025;-76
2023/08/08 04:23:30;;;;;;;2.03;1.33;;;;;;;17.96;100.00;100405.16;5013492;28;20034;-76
2023/08/08 04:25:55;;;;;;;2.22;1.00;;;;;;;18.18;100.00;100423.94;5016569;28;20033;-75
2023/08/08 04:28:21;;;;;;;1.95;1.13;;;;;;;18.27;100.00;100417.47;5007958;28;20022;-74
2023/08/08 04:30:46;;;;;;;2.30;1.20;;;;;;;17.95;100.00;100432.59;5042360;28;20042;-75
2023/08/08 04:33:12;;;;;;;5.72;1.50;;;;;;;17.39;100.00;100421.81;5012506;28;20042;-75
2023/08/08 04:35:37;;;;;;;3.45;1.90;;;;;;;17.12;100.00;100350.09;5009636;28;20752;-75
2023/08/08 04:38:03;;;;;;;2.92;1.35;;;;;;;17.81;100.00;100475.47;5010035;28;20136;-76
2023/08/08 04:40:29;;;;;;;2.50;1.25;;;;;;;17.92;100.00;100493.78;5008843;28;20759;-76
2023/08/08 04:42:54;;;;;;;2.50;1.27;;;;;;;18.20;100.00;100492.97;5037858;28;20049;-77
2023/08/08 04:45:20;;;;;;;2.92;2.05;;;;;;;17.40;100.00;100383.78;5004701;28;20049;-76
2023/08/08 04:47:46;;;;;;;5.57;2.13;;;;;;;17.81;100.00;100472.84;5011310;28;20022;-76
2023/08/08 04:50:12;;;;;;;8.57;1.75;;;;;;;16.96;100.00;100384.09;5019455;28;20061;-76
2023/08/08 04:52:37;;;;;;;1.70;1.17;;;;;;;17.65;100.00;100508.66;5013314;28;20050;-77
2023/08/08 04:55:03;;;;;;;2.88;1.20;;;;;;;17.82;100.00;100508.22;5020376;28;20045;-76
2023/08/08 04:57:29;;;;;;;2.03;1.35;;;;;;;16.94;100.00;100398.31;5020402;28;20041;-78
2023/08/08 04:59:54;;;;;;;2.47;1.17;;;;;;;16.94;100.00;100393.88;5014694;28;20474;-77
2023/08/08 05:02:19;;;;;;;1.95;1.17;;;;;;;17.35;100.00;100458.19;5018216;28;20028;-77
2023/08/08 05:04:45;;;;;;;1.73;1.10;;;;;;;17.66;100.00;100468.81;5016056;28;20092;-77
2023/08/08 05:07:10;;;;;;;2.42;1.45;;;;;;;17.19;100.00;100398.53;5009827;28;20117;-78
2023/08/08 05:09:36;;;;;;;2.20;1.40;;;;;;;17.55;100.00;100480.63;5012010;28;20057;-76
2023/08/08 05:12:02;;;;;;;2.00;0.88;;;;;;;17.15;100.00;100380.94;5005377;28;20574;-75
2023/08/08 05:14:27;;;;;;;1.55;1.10;;;;;;;17.57;100.00;100539.84;5009398;28;20425;-77
2023/08/08 05:16:52;;;;;;;2.10;1.35;;;;;;;17.57;100.00;100508.00;5015927;28;20161;-75
2023/08/08 05:19:18;;;;;;;2.45;1.30;;;;;;;17.27;100.00;100471.63;5009397;28;20048;-76
2023/08/08 05:21:44;;;;;;;3.28;2.05;;;;;;;16.75;100.00;100411.13;5014383;28;20335;-75
2023/08/08 05:24:09;;;;;;;3.40;1.80;;;;;;;17.47;100.00;100500.28;5011269;28;20037;-76
2023/08/08 05:26:35;;;;;;;3.95;2.45;;;;;;;17.17;100.00;100482.53;5012923;28;20033;-79
2023/08/08 05:29:00;;;;;;;1.67;1.25;;;;;;;17.59;100.00;100504.41;5008733;28;20068;-76
2023/08/08 05:31:26;;;;;;;3.80;2.38;;;;;;;17.44;100.00;100460.59;5010574;28;20046;-77
2023/08/08 05:33:51;;;;;;;3.13;1.80;;;;;;;17.51;100.00;100470.13;5018650;28;20053;-74
2023/08/08 05:36:16;;;;;;;3.95;1.90;;;;;;;16.72;100.00;100353.78;5009400;28;20738;-76
2023/08/08 05:38:42;;;;;;;4.57;1.67;;;;;;;17.61;100.00;100472.53;5014554;28;20029;-74
2023/08/08 05:41:07;;;;;;;2.17;1.83;;;;;;;17.78;100.00;100488.81;5018916;28;20035;-76
2023/08/08 05:43:33;;;;;;;3.35;2.20;;;;;;;17.49;100.00;100493.16;5014957;28;20042;-78
2023/08/08 05:45:59;;;;;;;3.17;1.95;;;;;;;17.63;100.00;100510.47;5025070;28;20041;-77
2023/08/08 05:48:24;;;;;;;3.28;1.77;;;;;;;16.77;100.00;100378.38;5011795;28;20045;-74
2023/08/08 05:50:50;;;;;;;2.35;1.40;;;;;;;17.67;100.00;100496.22;5018640;28;20038;-74
2023/08/08 05:53:15;;;;;;;3.78;2.30;;;;;;;17.82;100.00;100498.47;5026653;28;20080;-77
2023/08/08 05:55:44;;;;;;;7.53;1.75;;;;;;;17.21;100.00;100383.44;5016855;28;20145;-76
2023/08/08 05:58:10;;;;;;;3.70;2.28;;;;;;;17.20;100.00;100381.69;5023108;28;20041;-75
2023/08/08 06:00:35;;;;;;;2.90;1.25;;;;;;;16.60;100.00;100402.66;5021776;28;20050;-76
2023/08/08 06:03:01;;;;;;;3.28;2.45;;;;;;;17.40;100.00;100535.84;5023146;28;20025;-76
2023/08/08 06:05:28;;;;;;;2.67;1.40;;;;;;;16.83;100.00;100447.19;5020982;28;20500;-74
2023/08/08 06:07:54;;;;;;;2.70;1.73;;;;;;;17.43;100.00;100508.38;5015747;28;20050;-75
2023/08/08 06:10:20;;;;;;;2.97;1.63;;;;;;;17.61;100.00;100483.13;5011374;28;20052;-78
2023/08/08 06:12:45;;;;;;;7.07;3.67;;;;;;;17.30;100.00;100409.69;5017671;28;20785;-78
2023/08/08 06:15:11;;;;;;;2.78;1.98;;;;;;;18.14;100.00;100500.19;5012544;28;20037;-77
2023/08/08 06:17:36;;;;;;;3.67;2.22;;;;;;;17.07;100.00;100334.31;5018245;28;20376;-77
2023/08/08 06:20:02;;;;;;;2.22;1.55;;;;;;;17.69;100.00;100428.91;5009378;28;20454;-76
2023/08/08 06:22:28;;;;;;;1.92;1.23;;;;;;;17.51;100.00;100429.44;5011449;28;20482;-77
2023/08/08 06:24:53;;;;;;;3.45;1.45;;;;;;;16.82;100.00;100426.88;5013150;28;20054;-76
2023/08/08 06:27:19;;;;;;;4.40;1.88;;;;;;;17.55;100.00;100517.78;5014875;28;20037;-74
2023/08/08 06:29:44;;;;;;;3.33;1.90;;;;;;;17.67;100.00;100488.25;5031911;28;20033;-74
2023/08/08 06:32:10;;;;;;;2.80;1.73;;;;;;;17.14;100.00;100424.25;5011086;28;20030;-77
2023/08/08 06:34:35;;;;;;;4.25;1.80;;;;;;;17.69;100.00;100510.31;5006591;28;20038;-77
2023/08/08 06:37:01;;;;;;;3.40;1.80;;;;;;;18.03;100.00;100520.03;5008507;28;20119;-76
2023/08/08 06:39:26;;;;;;;2.85;1.70;;;;;;;17.92;100.00;100521.19;5019550;28;20481;-78
2023/08/08 06:41:52;;;;;;;2.83;2.03;;;;;;;17.05;100.00;100407.72;5018754;28;20398;-76
2023/08/08 06:44:17;;;;;;;2.85;2.00;;;;;;;17.17;100.00;100434.81;5015962;28;20029;-77
2023/08/08 06:46:43;;;;;;;3.22;1.88;;;;;;;17.33;100.00;100464.44;5016942;28;20049;-74
2023/08/08 06:49:09;;;;;;;2.53;1.55;;;;;;;17.40;100.00;100572.13;5010549;28;20038;-75
2023/08/08 06:51:35;;;;;;;3.28;2.08;;;;;;;16.91;100.00;100472.63;5015155;28;20045;-77
2023/08/08 06:54:00;;;;;;;4.65;2.90;;;;;;;16.42;100.00;100416.34;5009242;28;20157;-74
2023/08/08 06:56:26;;;;;;;3.90;1.83;;;;;;;17.04;100.00;100496.13;5024757;28;20120;-75
2023/08/08 06:58:52;;;;;;;3.03;1.63;;;;;;;17.17;100.00;100527.63;5021938;28;20183;-78
2023/08/08 07:01:17;;;;;;;3.42;2.08;;;;;;;17.23;100.00;100523.03;5013629;28;20097;-75
2023/08/08 07:03:43;;;;;;;4.18;1.75;;;;;;;17.32;100.00;100596.19;5006541;28;20105;-76
2023/08/08 07:06:09;;;;;;;4.30;2.88;;;;;;;17.13;100.00;100521.50;5015777;28;20037;-75
2023/08/08 07:08:35;;;;;;;2.67;1.85;;;;;;;16.79;100.00;100522.34;5011330;28;20025;-75
2023/08/08 07:11:02;;;;;;;2.47;1.67;;;;;;;17.15;100.00;100534.75;5014181;28;20096;-76
2023/08/08 07:13:27;;;;;;;18.38;1.83;;;;;;;17.79;100.00;100627.72;5010028;28;20045;-76
2023/08/08 07:15:53;;;;;;;3.83;3.05;;;;;;;17.07;100.00;100530.50;5015852;28;20050;-75
2023/08/08 07:18:19;;;;;;;3.00;2.30;;;;;;;16.98;100.00;100522.78;5014073;28;20065;-77
2023/08/08 07:20:44;;;;;;;2.28;1.42;;;;;;;16.94;100.00;100531.69;5009674;28;20073;-75
2023/08/08 07:23:10;;;;;;;3.60;2.40;;;;;;;17.31;100.00;100589.13;5012305;28;20042;-75
2023/08/08 07:25:35;;;;;;;4.65;2.65;;;;;;;17.56;100.00;100620.34;5008140;28;20034;-76
2023/08/08 07:28:01;;;;;;;3.67;2.38;;;;;;;16.58;100.00;100457.47;5014613;28;20065;-76
2023/08/08 07:30:26;;;;;;;3.67;2.17;;;;;;;16.83;100.00;100525.78;5014568;28;20041;-75
2023/08/08 07:32:52;;;;;;;3.22;1.75;;;;;;;17.22;100.00;100531.03;5010840;28;20520;-76
2023/08/08 07:35:17;;;;;;;2.97;2.10;;;;;;;17.90;100.00;100628.34;5017812;28;20064;-76
2023/08/08 07:37:43;;;;;;;3.60;2.65;;;;;;;17.97;100.00;100618.44;5011665;28;20057;-75
2023/08/08 07:40:17;;;;;;;3.35;2.28;;;;;;;17.18;100.00;100471.88;5011763;28;20052;-77
2023/08/08 07:42:43;;;;;;;3.65;2.47;;;;;;;17.93;100.00;100604.34;4999212;28;20041;-77
2023/08/08 07:45:09;;;;;;;3.35;2.17;;;;;;;17.91;100.00;100593.78;5015668;28;20095;-75
2023/08/08 07:47:34;;;;;;;3.58;1.88;;;;;;;17.28;100.00;100485.78;5015095;28;20582;-76
2023/08/08 07:50:00;;;;;;;4.38;3.20;;;;;;;18.20;100.00;100570.00;5015638;28;20080;-75
2023/08/08 07:52:26;;;;;;;4.57;2.42;;;;;;;17.93;100.00;100562.75;5018327;28;20042;-75
2023/08/08 07:54:51;;;;;;;4.13;2.70;;;;;;;17.25;100.00;100461.97;5022967;28;20052;-76
2023/08/08 07:57:17;;;;;;;7.07;2.75;;;;;;;17.23;100.00;100525.69;4996574;28;20611;-75
2023/08/08 07:59:42;;;;;;;4.40;2.53;;;;;;;16.98;100.00;100466.25;5007308;28;20121;-76
2023/08/08 08:02:07;;;;;;;4.93;3.28;;;;;;;17.92;100.00;100565.44;5006665;28;20045;-75
2023/08/08 08:04:34;;;;;;;6.10;2.85;;;;;;;16.94;100.00;100468.09;5004016;28;20042;-77
2023/08/08 08:07:00;;;;;;;4.90;2.60;;;;;;;17.80;100.00;100563.97;5003778;28;20050;-77
2023/08/08 08:09:25;;;;;;;3.72;2.80;;;;;;;18.25;100.00;100558.31;5004500;28;20037;-75
2023/08/08 08:11:51;;;;;;;7.47;3.38;;;;;;;18.72;100.00;100569.28;5005729;28;20033;-76
2023/08/08 08:14:16;;;;;;;13.07;3.47;;;;;;;18.52;100.00;100476.03;5004939;28;20541;-74
2023/08/08 08:16:42;;;;;;;4.90;2.40;;;;;;;18.63;100.00;100566.03;5005744;28;20573;-76
2023/08/08 08:19:07;;;;;;;4.70;3.10;;;;;;;18.55;100.00;100459.97;5006301;28;20092;-77
2023/08/08 08:21:32;;;;;;;3.90;2.60;;;;;;;19.06;100.00;100546.06;5006464;28;20065;-75
2023/08/08 08:23:58;;;;;;;5.03;2.88;;;;;;;18.63;100.00;100476.53;5003773;28;20045;-75
2023/08/08 08:26:24;;;;;;;8.75;3.28;;;;;;;18.59;100.00;100461.63;5006817;28;20066;-74
2023/08/08 08:28:49;;;;;;;4.47;2.75;;;;;;;19.07;100.00;100572.63;5005756;28;20045;-74
2023/08/08 08:31:15;;;;;;;4.03;2.15;;;;;;;18.13;100.00;100420.56;5004610;28;20125;-76
2023/08/08 08:33:40;;;;;;;4.95;3.30;;;;;;;19.31;100.00;100501.75;5003618;28;20052;-77
2023/08/08 08:36:06;;;;;;;5.40;3.05;;;;;;;19.66;100.00;100547.56;5005912;28;20042;-76
2023/08/08 08:38:32;;;;;;;3.97;2.38;;;;;;;19.44;100.00;100458.78;5006133;28;20080;-77
2023/08/08 08:40:58;;;;;;;3.67;2.30;;;;;;;19.52;100.00;100462.00;4999062;28;20054;-76
2023/08/08 08:43:24;;;;;;;3.97;2.65;;;;;;;20.07;100.00;100539.06;4999071;28;20041;-75
2023/08/08 08:45:53;;;;;;;4.60;2.58;;;;;;;20.02;100.00;100552.53;5037488;28;20416;-76
2023/08/08 08:48:21;;;;;;;4.25;2.72;;;;;;;20.16;100.00;100523.59;5005930;28;20042;-76
2023/08/08 08:50:49;;;;;;;4.68;3.75;;;;;;;20.70;100.00;100531.28;4999144;28;20041;-76
2023/08/08 08:53:15;;;;;;;4.78;3.63;;;;;;;20.22;100.00;100522.47;5005790;28;20046;-78
2023/08/08 08:55:41;;;;;;;3.83;2.55;;;;;;;20.13;100.00;100429.56;5037646;28;20438;-76
2023/08/08 08:58:07;;;;;;;4.22;3.10;;;;;;;21.01;100.00;100448.22;5005370;28;20124;-78
2023/08/08 09:00:33;;;;;;;3.65;2.72;;;;;;;20.92;100.00;100430.81;5028948;28;20054;-76
2023/08/08 09:02:59;;;;;;;4.90;2.97;;;;;;;21.43;100.00;100522.94;4997519;28;20049;-76
2023/08/08 09:05:29;;;;;;;5.63;2.95;;;;;;;21.79;100.00;100530.25;5014704;28;20026;-76
2023/08/08 09:07:54;;;;;;;3.85;2.22;;;;;;;20.76;100.00;100443.91;4998632;28;20061;-76
2023/08/08 09:10:20;;;;;;;4.22;2.97;;;;;;;21.06;100.00;100483.59;5005864;28;20065;-76
2023/08/08 09:12:46;;;;;;;4.85;2.58;;;;;;;20.80;100.00;100420.66;5005505;28;20088;-76
2023/08/08 09:15:12;;;;;;;4.55;3.28;;;;;;;21.43;100.00;100506.94;5006439;28;20534;-76
2023/08/08 09:17:42;;;;;;;4.13;2.53;;;;;;;21.02;100.00;100466.81;5007513;28;20029;-75
2023/08/08 09:20:10;;;;;;;3.92;2.67;;;;;;;21.88;100.00;100548.56;5009416;28;20502;-75
2023/08/08 09:22:37;;;;;;;5.85;3.63;;;;;;;21.40;100.00;100440.31;5008419;28;20038;-77
2023/08/08 09:25:02;;;;;;;3.47;2.53;;;;;;;21.98;100.00;100439.44;5009298;28;20042;-77
2023/08/08 09:27:28;;;;;;;4.78;2.65;;;;;;;23.03;100.00;100518.22;5001697;28;20038;-75
2023/08/08 09:29:54;;;;;;;3.83;2.95;;;;;;;23.05;100.00;100551.16;5008977;28;20034;-75
2023/08/08 09:32:19;;;;;;;5.32;3.78;;;;;;;22.27;100.00;100442.59;5009656;28;20022;-76
2023/08/08 09:34:45;;;;;;;5.95;3.08;;;;;;;22.06;100.00;100506.78;4998166;28;20046;-77
2023/08/08 09:37:11;;;;;;;5.45;2.95;;;;;;;22.08;100.00;100456.81;5004584;28;20493;-77
2023/08/08 09:39:37;;;;;;;5.20;3.20;;;;;;;22.39;100.00;100556.97;5003776;28;20046;-76
2023/08/08 09:42:06;;;;;;;4.22;2.80;;;;;;;20.15;100.00;100441.03;5008770;28;20048;-76
2023/08/08 09:44:34;;;;;;;4.75;2.75;;;;;;;21.09;100.00;100483.44;5005596;28;20034;-76
2023/08/08 09:47:00;;;;;;;5.30;2.60;;;;;;;21.80;100.00;100467.91;5008636;28;20042;-75
2023/08/08 09:49:27;;;;;;;3.42;2.22;;;;;;;23.21;100.00;100563.78;5008886;28;20409;-76
2023/08/08 09:51:52;;;;;;;3.00;2.00;;;;;;;22.27;100.00;100483.56;5006877;28;20056;-76
2023/08/08 09:54:18;;;;;;;4.88;2.83;;;;;;;23.03;100.00;100498.63;5001680;28;20042;-77
2023/08/08 09:56:44;;;;;;;4.80;2.60;;;;;;;23.37;100.00;100466.50;5009470;28;20026;-75
2023/08/08 09:59:11;;;;;;;3.30;2.22;;;;;;;23.31;100.00;100468.63;5008831;28;20042;-76
2023/08/08 10:01:39;;;;;;;3.72;2.10;;;;;;;23.72;100.00;100570.94;5006936;28;20090;-76
2023/08/08 10:04:06;;;;;;;4.57;1.83;;;;;;;22.80;100.00;100478.34;5000233;28;20073;-76
2023/08/08 10:06:32;;;;;;;6.65;2.20;;;;;;;22.34;100.00;100573.22;5008740;28;20046;-75
2023/08/08 10:08:58;;;;;;;10.52;1.23;;;;;;;19.08;100.00;100485.72;5007054;28;20022;-77
2023/08/08 10:11:25;;;;;;;1.52;0.88;;;;;;;19.83;100.00;100576.31;5003712;28;20065;-75
2023/08/08 10:13:53;;;;;;;0.63;0.40;;;;;;;19.77;100.00;100572.06;5007693;28;20058;-75
2023/08/08 10:16:19;;;;;;;0.93;0.55;;;;;;;19.50;100.00;100607.59;5007998;28;20069;-75
2023/08/08 10:18:55;;;;;;;1.90;0.68;;;;;;;18.33;100.00;100433.19;5008153;28;20042;-77
2023/08/08 10:21:20;;;;;;;0.57;0.30;;;;;;;18.64;100.00;100544.72;5018343;28;20054;-75
2023/08/08 10:23:47;;;;;;;0.68;0.28;;;;;;;19.39;100.00;100598.19;5002325;28;20052;-75
2023/08/08 10:26:20;;;;;;;0.98;0.32;;;;;;;19.71;100.00;100627.31;5008463;28;20049;-79
2023/08/08 10:28:58;;;;;;;;;;;;;;;18.92;100.00;100626.34;5006400;28;20173;-74
2023/08/08 10:31:24;;;;;;;7.20;0.40;;;;;;;18.78;100.00;100584.22;5006542;28;20400;-77
2023/08/08 10:33:49;;;;;;;0.10;0.10;;;;;;;19.00;100.00;100613.66;5008274;28;20030;-76
2023/08/08 10:36:15;;;;;;;0.20;0.20;;;;;;;17.84;100.00;100556.81;5008111;28;20088;-76
2023/08/08 10:38:52;;;;;;;1.00;0.88;;;;;;;17.89;100.00;100627.47;4998298;28;20437;-74
2023/08/08 10:41:20;;;;;;;0.85;0.38;;;;;;;17.33;100.00;100515.72;5008525;28;20042;-77
2023/08/08 10:43:51;;;;;;;0.20;0.20;;;;;;;17.31;100.00;100517.53;5006030;28;20048;-77
2023/08/08 10:46:30;;;;;;;0.20;0.20;;;;;;;17.33;100.00;100544.03;5006651;28;20030;-75
2023/08/08 10:49:01;;;;;;;0.10;0.10;;;;;;;17.69;100.00;100595.25;5007655;28;20049;-75
2023/08/08 10:51:38;;;;;;;0.52;0.30;;;;;;;17.28;100.00;100521.13;4990739;28;20478;-77
2023/08/08 10:54:12;;;;;;;0.45;0.20;;;;;;;17.53;100.00;100544.34;5004760;28;20053;-77
2023/08/08 10:56:37;;;;;;;0.20;0.20;;;;;;;17.69;100.00;100519.13;5003423;28;20743;-78
2023/08/08 10:59:15;;;;;;;0.13;0.13;;;;;;;18.38;100.00;100595.13;5007620;28;20065;-77
2023/08/08 11:01:40;;;;;;;0.75;0.50;;;;;;;18.24;100.00;100524.69;5007702;28;20041;-76
2023/08/08 11:04:06;;;;;;;0.60;0.22;;;;;;;18.50;100.00;100534.53;5007676;28;20413;-78
2023/08/08 11:06:33;;;;;;;0.30;0.30;;;;;;;19.17;100.00;100522.66;5006845;28;20096;-76
2023/08/08 11:09:01;;;;;;;0.20;0.20;;;;;;;20.59;100.00;100612.59;5004333;28;20466;-76
2023/08/08 11:11:26;;;;;;;0.95;0.80;;;;;;;19.20;100.00;100514.59;5007680;28;20041;-77